Fox Valley, Illinois
Current Conditions -  °F | °C
As of 3:53 AM on Monday 20 Oct 2014 (Local Time) from KMDW Reporting Station
Clear Clear  
Wind Chill: 50°   Ceiling: Unl
Heat Index: 50°   Visibility: 10mi
Dew Point: 45°   Wind: 10mph
Humidity: 83%   Direction: 210°SSW
Pressure: 29.83"   Gusts: NA
Location:  41.88°N, 87.65°W
Report Text: KMDW 200853Z 21009KT 10SM CLR 10/07 A2983 RMK AO2 SLP103 T01000072 56023
Loading
Personal Weather Stations






























Interactive Weather Map
Tropical Storm Tracking
New forecast layout! Learn more

10-Day Weather Forecast

Advertisements
Track Severe Weather on mobile